Time;durP1;ratioP1;P1;durP2;ratioP2;P2;SDS_P1;SDS_P2;PMS_P1;PMS_P2;Temp;Humidity;BMP_temperature;BMP_pressure;BME280_temperature;BME280_humidity;BME280_pressure;Samples;Min_cycle;Max_cycle;Signal;HPM_P1;HPM_P2
2022/12/30 00:00:49;;;;;;;10.88;3.00;;;6.70;99.90;;;;;;5078424;28;20045;-70
2022/12/30 00:03:15;;;;;;;9.20;3.00;;;6.80;99.90;;;;;;5060682;28;20555;-71
2022/12/30 00:05:42;;;;;;;11.52;2.63;;;6.80;99.90;;;;;;5079472;28;20063;-71
2022/12/30 00:08:45;;;;;;;5.85;2.28;;;6.70;99.90;;;;;;5076921;28;20048;-72
2022/12/30 00:10:53;;;;;;;6.38;2.50;;;6.70;99.90;;;;;;5080430;28;20511;-71
2022/12/30 00:35:17;;;;;;;10.75;2.08;;;6.70;99.90;;;;;;5079434;28;20049;-71
2022/12/30 00:37:44;;;;;;;10.30;2.70;;;6.70;99.90;;;;;;5059267;28;20080;-70
2022/12/30 00:40:10;;;;;;;5.45;2.42;;;6.70;99.90;;;;;;5079947;28;20186;-71
2022/12/30 00:45:23;;;;;;;5.70;2.13;;;6.60;99.90;;;;;;5078326;28;20120;-71
2022/12/30 00:47:49;;;;;;;8.50;2.47;;;6.60;99.90;;;;;;5078354;28;20055;-72
2022/12/30 00:58:28;;;;;;;7.00;2.75;;;6.30;99.90;;;;;;5078960;28;20108;-71
2022/12/30 01:00:54;;;;;;;8.43;2.55;;;6.30;99.90;;;;;;5078477;28;20080;-71
2022/12/30 01:03:20;;;;;;;8.48;2.72;;;6.20;99.90;;;;;;5075839;28;20080;-71
2022/12/30 01:05:46;;;;;;;8.77;2.50;;;6.20;99.90;;;;;;5079241;28;20082;-71
2022/12/30 01:08:12;;;;;;;10.85;3.05;;;6.20;99.90;;;;;;5076715;28;20044;-71
2022/12/30 01:10:38;;;;;;;8.32;2.08;;;6.20;99.90;;;;;;5061325;28;20396;-71
2022/12/30 01:13:05;;;;;;;6.30;2.10;;;6.20;99.90;;;;;;5077240;28;20600;-71
2022/12/30 01:15:30;;;;;;;7.20;2.10;;;6.10;99.90;;;;;;5076917;28;20119;-71
2022/12/30 01:17:56;;;;;;;7.18;1.92;;;6.10;99.90;;;;;;5077119;28;20090;-72
2022/12/30 01:20:22;;;;;;;6.82;2.08;;;6.10;99.90;;;;;;5077837;28;20072;-72
2022/12/30 01:22:47;;;;;;;7.00;2.60;;;6.10;99.90;;;;;;5077547;28;20045;-73
2022/12/30 01:25:13;;;;;;;5.88;2.28;;;6.10;99.90;;;;;;5058945;28;20564;-72
2022/12/30 01:27:39;;;;;;;7.10;2.85;;;6.10;99.90;;;;;;5078014;28;20083;-72
2022/12/30 01:30:05;;;;;;;6.65;1.83;;;6.00;99.90;;;;;;5076972;28;20396;-70
2022/12/30 01:32:31;;;;;;;4.28;1.80;;;6.00;99.90;;;;;;5077965;28;20135;-72
2022/12/30 01:34:57;;;;;;;7.18;1.90;;;6.10;99.90;;;;;;5077570;28;20064;-72
2022/12/30 01:37:24;;;;;;;7.00;2.33;;;6.00;99.90;;;;;;5076436;28;20048;-72
2022/12/30 01:39:50;;;;;;;7.13;2.28;;;6.00;99.90;;;;;;5078893;28;20067;-70
2022/12/30 01:42:18;;;;;;;7.13;2.25;;;5.90;99.90;;;;;;5079307;28;20053;-71
2022/12/30 01:44:56;;;;;;;8.13;2.42;;;5.90;99.90;;;;;;5081981;28;20052;-71
2022/12/30 01:47:45;;;;;;;6.45;2.25;;;5.90;99.90;;;;;;5079199;28;20049;-71
2022/12/30 01:50:11;;;;;;;7.10;2.10;;;5.90;99.90;;;;;;5078620;28;20049;-71
2022/12/30 01:52:40;;;;;;;7.72;2.33;;;5.80;99.90;;;;;;5073910;28;20033;-71
2022/12/30 01:55:11;;;;;;;4.60;1.70;;;5.80;99.90;;;;;;5080797;28;20058;-70
2022/12/30 01:57:42;;;;;;;8.23;2.13;;;5.90;99.90;;;;;;5083238;28;20024;-72
2022/12/30 02:00:08;;;;;;;5.05;2.22;;;5.90;99.90;;;;;;5060875;28;20037;-71
2022/12/30 02:02:34;;;;;;;7.60;2.30;;;5.90;99.90;;;;;;5062258;28;20045;-70
2022/12/30 02:05:03;;;;;;;8.90;2.75;;;5.80;99.90;;;;;;5059389;28;20037;-71
2022/12/30 02:07:39;;;;;;;6.35;2.53;;;5.80;99.90;;;;;;5070555;28;20472;-71
2022/12/30 02:10:07;;;;;;;5.65;2.72;;;5.70;99.90;;;;;;5081708;28;20059;-73
2022/12/30 02:12:32;;;;;;;8.00;2.58;;;5.70;99.90;;;;;;5079406;28;20055;-71
2022/12/30 02:14:58;;;;;;;9.55;3.22;;;5.80;99.90;;;;;;5082664;28;20096;-72
2022/12/30 02:17:41;;;;;;;9.45;2.90;;;5.80;99.90;;;;;;5080367;28;20037;-70
2022/12/30 02:20:26;;;;;;;7.57;3.38;;;5.80;99.90;;;;;;5080543;28;20049;-71
2022/12/30 02:23:07;;;;;;;8.52;2.85;;;5.70;99.90;;;;;;5083754;28;20046;-71
2022/12/30 02:26:03;;;;;;;8.65;2.55;;;5.70;99.90;;;;;;5083756;28;20052;-71
2022/12/30 02:28:47;;;;;;;6.68;2.53;;;5.60;99.90;;;;;;5081980;28;20070;-72
2022/12/30 02:31:45;;;;;;;7.93;2.70;;;5.60;99.90;;;;;;5082212;28;20447;-72
2022/12/30 02:34:17;;;;;;;10.55;2.47;;;5.60;99.90;;;;;;5078398;28;20047;-70
2022/12/30 02:36:53;;;;;;;7.88;2.53;;;5.60;99.90;;;;;;5080443;28;20052;-71
2022/12/30 02:39:37;;;;;;;7.32;2.28;;;5.60;99.90;;;;;;5079704;28;20098;-70
2022/12/30 02:45:13;;;;;;;10.98;3.05;;;5.50;99.90;;;;;;5082104;28;20805;-71
2022/12/30 02:47:53;;;;;;;6.10;2.08;;;5.60;99.90;;;;;;5079320;28;20036;-70
2022/12/30 02:53:12;;;;;;;7.30;2.53;;;5.60;99.90;;;;;;5081695;28;20400;-71
2022/12/30 02:55:38;;;;;;;7.93;2.63;;;5.60;99.90;;;;;;5077921;28;20406;-71
2022/12/30 02:58:03;;;;;;;7.93;2.50;;;5.50;99.90;;;;;;5081756;28;20058;-71
2022/12/30 03:04:36;;;;;;;7.85;2.47;;;5.50;99.90;;;;;;5079688;28;20088;-69
2022/12/30 03:07:41;;;;;;;10.48;3.15;;;5.40;99.90;;;;;;5075105;28;20088;-70
2022/12/30 03:13:27;;;;;;;8.20;2.85;;;5.30;99.90;;;;;;5074344;28;20048;-70
2022/12/30 03:16:01;;;;;;;8.98;2.47;;;5.30;99.90;;;;;;5082299;28;20056;-70
2022/12/30 03:18:28;;;;;;;7.72;2.70;;;5.20;99.90;;;;;;5081418;28;20044;-71
2022/12/30 03:20:54;;;;;;;5.95;2.40;;;5.20;99.90;;;;;;5077711;28;20121;-71
2022/12/30 03:28:52;;;;;;;8.20;2.45;;;5.00;99.90;;;;;;5079827;28;20100;-71
2022/12/30 03:31:18;;;;;;;8.10;2.60;;;5.20;99.90;;;;;;5079594;28;20127;-71
2022/12/30 03:33:45;;;;;;;9.25;3.05;;;5.10;99.90;;;;;;5077358;28;20049;-71
2022/12/30 03:36:23;;;;;;;8.68;2.28;;;5.10;99.90;;;;;;5081224;28;20070;-71
2022/12/30 03:38:57;;;;;;;8.25;2.60;;;5.20;99.90;;;;;;5077073;28;20043;-70
2022/12/30 03:41:25;;;;;;;6.72;2.17;;;5.10;99.90;;;;;;5080285;28;20071;-71
2022/12/30 03:43:52;;;;;;;9.00;2.95;;;5.10;99.90;;;;;;5079131;28;20044;-71
2022/12/30 03:46:20;;;;;;;9.35;1.90;;;5.20;99.90;;;;;;5078677;28;20044;-71
2022/12/30 03:48:46;;;;;;;7.97;2.45;;;5.30;99.90;;;;;;5080953;28;20066;-71
2022/12/30 03:51:11;;;;;;;8.60;2.25;;;5.20;99.90;;;;;;5076699;28;20044;-70
2022/12/30 03:53:37;;;;;;;7.88;2.10;;;5.10;99.90;;;;;;5079637;28;20048;-71
2022/12/30 03:56:03;;;;;;;5.00;1.90;;;5.10;99.90;;;;;;5078991;28;20045;-71
2022/12/30 03:58:29;;;;;;;6.53;1.90;;;5.10;99.90;;;;;;5078471;28;20048;-70
2022/12/30 04:00:54;;;;;;;7.35;2.08;;;5.10;99.90;;;;;;5079811;28;20036;-70
2022/12/30 04:03:20;;;;;;;7.07;2.13;;;5.20;99.90;;;;;;5077445;28;20060;-70
2022/12/30 04:05:46;;;;;;;5.35;1.38;;;5.20;99.90;;;;;;5080103;28;20049;-71
2022/12/30 04:08:11;;;;;;;5.75;2.50;;;5.20;99.90;;;;;;5077463;28;20033;-72
2022/12/30 04:10:37;;;;;;;6.30;2.20;;;5.20;99.90;;;;;;5079195;28;20048;-71
2022/12/30 04:13:03;;;;;;;6.05;1.90;;;5.20;99.90;;;;;;5078225;28;20281;-69
2022/12/30 04:15:28;;;;;;;7.05;2.10;;;5.20;99.90;;;;;;5078560;28;20052;-71
2022/12/30 04:17:54;;;;;;;6.25;1.92;;;5.10;99.90;;;;;;5079782;28;20056;-70
2022/12/30 04:20:20;;;;;;;6.47;2.20;;;5.10;99.90;;;;;;5078480;28;20046;-71
2022/12/30 04:22:45;;;;;;;9.43;2.25;;;5.20;99.90;;;;;;5078719;28;20048;-70
2022/12/30 04:25:11;;;;;;;8.60;2.15;;;5.10;99.90;;;;;;5076210;28;20060;-70
2022/12/30 04:27:37;;;;;;;3.47;1.52;;;5.10;99.90;;;;;;5079376;28;20041;-70
2022/12/30 04:30:03;;;;;;;4.43;1.85;;;5.10;99.90;;;;;;5077104;28;20051;-71
2022/12/30 04:32:29;;;;;;;6.72;2.58;;;5.10;99.90;;;;;;5077595;28;20048;-70
2022/12/30 04:34:54;;;;;;;7.13;2.00;;;5.10;99.90;;;;;;5076685;28;20063;-70
2022/12/30 04:37:20;;;;;;;4.75;1.67;;;5.10;99.90;;;;;;5078272;28;20067;-70
2022/12/30 04:39:45;;;;;;;8.50;1.92;;;5.00;99.90;;;;;;5080119;28;20048;-70
2022/12/30 04:42:11;;;;;;;5.28;1.77;;;5.00;99.90;;;;;;5076329;28;20055;-71
2022/12/30 04:44:37;;;;;;;5.28;1.92;;;5.00;99.90;;;;;;5080031;28;20120;-70
2022/12/30 04:47:02;;;;;;;5.50;2.05;;;5.00;99.90;;;;;;5076126;28;20047;-70
2022/12/30 04:49:28;;;;;;;3.35;2.13;;;5.00;99.90;;;;;;5079819;28;20040;-71
2022/12/30 04:51:54;;;;;;;4.85;2.20;;;5.00;99.90;;;;;;5078305;28;20094;-70
2022/12/30 04:54:20;;;;;;;5.82;2.00;;;4.90;99.90;;;;;;5078598;28;20044;-70
2022/12/30 04:56:45;;;;;;;7.22;2.35;;;5.00;99.90;;;;;;5079453;28;20059;-70
2022/12/30 04:59:11;;;;;;;7.97;2.00;;;5.00;99.90;;;;;;5077238;28;20036;-71
2022/12/30 05:01:37;;;;;;;6.70;2.00;;;5.00;99.90;;;;;;5078435;28;20119;-70
2022/12/30 05:04:02;;;;;;;4.93;1.70;;;5.10;99.90;;;;;;5077072;28;20041;-70
2022/12/30 05:06:28;;;;;;;4.78;1.83;;;5.10;99.90;;;;;;5079436;28;20696;-71
2022/12/30 05:08:54;;;;;;;5.30;1.88;;;5.10;99.90;;;;;;5075766;28;20044;-70
2022/12/30 05:11:19;;;;;;;5.65;2.40;;;5.00;99.90;;;;;;5077326;28;20041;-71
2022/12/30 05:13:45;;;;;;;8.30;2.33;;;5.00;99.90;;;;;;5077548;28;20066;-72
2022/12/30 05:16:11;;;;;;;8.38;2.20;;;5.10;99.90;;;;;;5076617;28;20045;-71
2022/12/30 05:18:36;;;;;;;5.97;1.83;;;5.00;99.90;;;;;;5079390;28;20044;-70
2022/12/30 05:21:02;;;;;;;4.97;1.80;;;5.00;99.90;;;;;;5076527;28;20045;-71
2022/12/30 05:26:16;;;;;;;6.93;1.73;;;5.00;99.90;;;;;;5077659;28;20072;-70
2022/12/30 05:28:44;;;;;;;6.32;1.80;;;5.00;99.90;;;;;;5077852;28;20436;-70
2022/12/30 05:31:10;;;;;;;7.00;2.00;;;5.00;99.90;;;;;;5079326;28;20071;-70
2022/12/30 05:33:36;;;;;;;6.88;1.85;;;5.00;99.90;;;;;;5076699;28;20065;-70
2022/12/30 05:36:01;;;;;;;5.15;2.03;;;5.00;99.90;;;;;;5077918;28;20127;-71
2022/12/30 05:38:27;;;;;;;3.65;1.90;;;5.00;99.90;;;;;;5076250;28;20058;-71
2022/12/30 05:40:53;;;;;;;5.63;1.80;;;5.00;99.90;;;;;;5079134;28;20529;-70
2022/12/30 05:43:19;;;;;;;6.30;1.80;;;5.00;99.90;;;;;;5077477;28;20111;-70
2022/12/30 05:45:44;;;;;;;6.88;2.10;;;5.00;99.90;;;;;;5076637;28;20040;-70
2022/12/30 05:48:10;;;;;;;9.02;2.30;;;5.00;99.90;;;;;;5078615;28;20040;-71
2022/12/30 05:50:36;;;;;;;7.65;1.70;;;5.00;99.90;;;;;;5075742;28;20119;-70
2022/12/30 05:53:01;;;;;;;6.95;1.75;;;5.00;99.90;;;;;;5077671;28;20040;-71
2022/12/30 05:55:27;;;;;;;5.85;2.65;;;5.00;99.90;;;;;;5076643;28;20097;-70
2022/12/30 05:57:52;;;;;;;8.40;2.10;;;5.00;99.90;;;;;;5077648;28;20135;-71
2022/12/30 06:00:18;;;;;;;4.72;1.75;;;4.90;99.90;;;;;;5077280;28;20041;-70
2022/12/30 06:02:44;;;;;;;7.45;1.88;;;4.90;99.90;;;;;;5076312;28;20048;-70
2022/12/30 06:05:10;;;;;;;6.53;1.92;;;4.80;99.90;;;;;;5077648;28;20041;-70
2022/12/30 06:07:36;;;;;;;8.05;1.83;;;4.80;99.90;;;;;;5075839;28;20036;-71
2022/12/30 06:10:02;;;;;;;7.30;2.05;;;4.80;99.90;;;;;;5078085;28;20401;-70
2022/12/30 06:12:27;;;;;;;7.13;1.92;;;4.70;99.90;;;;;;5074227;28;20563;-70
2022/12/30 06:14:53;;;;;;;11.35;2.30;;;4.80;99.90;;;;;;5077461;28;20148;-69
2022/12/30 06:17:19;;;;;;;7.05;1.90;;;4.70;99.90;;;;;;5076577;28;20036;-70
2022/12/30 06:19:44;;;;;;;7.20;2.65;;;4.70;99.90;;;;;;5077036;28;20036;-70
2022/12/30 06:22:10;;;;;;;7.38;2.28;;;4.70;99.90;;;;;;5077840;28;20044;-69
2022/12/30 06:24:36;;;;;;;8.27;1.92;;;4.70;99.90;;;;;;5075623;28;20129;-71
2022/12/30 06:27:02;;;;;;;6.60;1.67;;;4.70;99.90;;;;;;5079230;28;20048;-70
2022/12/30 06:29:28;;;;;;;5.90;1.90;;;4.70;99.90;;;;;;5081446;28;20037;-70
2022/12/30 06:31:53;;;;;;;4.65;1.73;;;4.70;99.90;;;;;;5085588;28;20161;-71
2022/12/30 06:34:19;;;;;;;8.18;3.35;;;4.70;99.90;;;;;;5081780;28;20083;-70
2022/12/30 06:36:45;;;;;;;4.78;1.80;;;4.70;99.90;;;;;;5047359;28;20037;-71
2022/12/30 06:39:10;;;;;;;4.35;2.28;;;4.70;99.90;;;;;;5080940;28;20051;-70
2022/12/30 06:41:36;;;;;;;6.32;2.63;;;4.60;99.90;;;;;;5080576;28;20051;-70
2022/12/30 06:44:02;;;;;;;6.88;2.10;;;4.70;99.90;;;;;;5081924;28;20051;-70
2022/12/30 06:46:27;;;;;;;4.00;1.70;;;4.70;99.90;;;;;;5079651;28;20119;-69
2022/12/30 06:48:53;;;;;;;4.68;1.73;;;4.70;99.90;;;;;;5082218;28;20045;-71
2022/12/30 06:51:19;;;;;;;6.72;1.60;;;4.60;99.90;;;;;;5079732;28;20055;-71
2022/12/30 06:53:44;;;;;;;4.72;1.35;;;4.60;99.90;;;;;;5080606;28;20121;-70
2022/12/30 06:56:10;;;;;;;7.57;1.67;;;4.60;99.90;;;;;;5080652;28;20055;-70
2022/12/30 06:58:36;;;;;;;4.03;1.67;;;4.60;99.90;;;;;;5079655;28;20113;-70
2022/12/30 07:01:02;;;;;;;9.77;2.33;;;4.60;99.90;;;;;;5081707;28;20391;-70
2022/12/30 07:03:28;;;;;;;6.18;1.80;;;4.60;99.90;;;;;;5079161;28;20113;-70
2022/12/30 07:05:53;;;;;;;8.30;1.52;;;4.70;99.90;;;;;;5080678;28;20064;-70
2022/12/30 07:08:19;;;;;;;6.93;1.80;;;4.60;99.90;;;;;;5080091;28;20083;-71
2022/12/30 07:10:45;;;;;;;7.43;1.92;;;4.70;99.90;;;;;;5067171;28;20045;-72
2022/12/30 07:13:13;;;;;;;4.72;1.73;;;4.70;99.90;;;;;;5081901;28;20072;-71
2022/12/30 07:15:39;;;;;;;6.25;1.70;;;4.70;99.90;;;;;;5084831;28;20107;-71
2022/12/30 07:18:05;;;;;;;5.50;1.48;;;4.80;99.90;;;;;;5086013;28;20047;-70
2022/12/30 07:20:31;;;;;;;8.45;1.70;;;4.80;99.90;;;;;;5083759;28;20486;-71
2022/12/30 07:22:56;;;;;;;5.68;1.60;;;4.80;99.90;;;;;;5085424;28;20041;-71
2022/12/30 07:25:22;;;;;;;4.78;2.13;;;4.80;99.90;;;;;;5078682;28;20122;-71
2022/12/30 07:27:48;;;;;;;5.85;2.00;;;4.80;99.90;;;;;;5081441;28;20039;-70
2022/12/30 07:30:13;;;;;;;3.47;1.80;;;4.80;99.90;;;;;;5079226;28;20048;-70
2022/12/30 07:32:39;;;;;;;6.65;1.60;;;4.80;99.90;;;;;;5071375;28;20075;-71
2022/12/30 07:35:07;;;;;;;6.75;1.90;;;4.80;99.90;;;;;;5080875;28;20055;-71
2022/12/30 07:37:34;;;;;;;7.25;1.88;;;4.80;99.90;;;;;;5078585;28;20041;-73
2022/12/30 07:40:00;;;;;;;5.32;2.15;;;4.80;99.90;;;;;;5097781;28;20510;-72
2022/12/30 07:42:25;;;;;;;5.70;1.60;;;4.80;99.90;;;;;;5098176;28;20048;-71
2022/12/30 07:44:51;;;;;;;6.22;2.20;;;4.80;99.90;;;;;;5101016;28;20048;-72
2022/12/30 07:47:17;;;;;;;8.15;2.05;;;4.80;99.90;;;;;;5097903;28;20073;-70
2022/12/30 07:49:42;;;;;;;6.80;1.88;;;4.90;99.90;;;;;;5099247;28;20044;-70
2022/12/30 07:52:08;;;;;;;3.83;1.83;;;4.80;99.90;;;;;;5099144;28;20423;-70
2022/12/30 07:54:34;;;;;;;6.47;2.22;;;4.80;99.90;;;;;;5080203;28;20044;-73
2022/12/30 07:56:59;;;;;;;4.68;2.00;;;4.80;99.90;;;;;;5101060;28;20048;-70
2022/12/30 07:59:25;;;;;;;7.88;1.80;;;4.80;99.90;;;;;;5097310;28;20103;-72
2022/12/30 08:01:51;;;;;;;4.00;1.60;;;4.80;99.90;;;;;;5100277;28;20040;-71
2022/12/30 08:04:16;;;;;;;7.13;1.95;;;4.80;99.90;;;;;;5098146;28;20089;-69
2022/12/30 08:06:42;;;;;;;5.78;1.30;;;4.90;99.90;;;;;;5099262;28;20059;-73
2022/12/30 08:09:08;;;;;;;6.20;1.90;;;5.00;99.90;;;;;;5080781;28;20755;-70
2022/12/30 08:11:34;;;;;;;6.07;1.77;;;4.90;99.90;;;;;;5099442;28;20051;-72
2022/12/30 08:13:59;;;;;;;7.75;1.83;;;5.00;99.90;;;;;;5079680;28;20044;-70
2022/12/30 08:16:26;;;;;;;6.90;1.80;;;5.00;99.90;;;;;;5078515;28;20048;-71
2022/12/30 08:18:52;;;;;;;6.07;1.60;;;5.00;99.90;;;;;;5079960;28;20044;-70
2022/12/30 08:21:18;;;;;;;5.63;2.05;;;5.00;99.90;;;;;;5074807;28;20454;-73
2022/12/30 08:23:45;;;;;;;8.93;2.47;;;5.10;99.90;;;;;;5074514;28;20048;-71
2022/12/30 08:26:14;;;;;;;6.00;1.83;;;5.10;99.90;;;;;;5076520;28;20056;-70
2022/12/30 08:28:40;;;;;;;4.75;1.90;;;5.10;99.90;;;;;;5076365;28;20044;-72
2022/12/30 08:31:12;;;;;;;4.35;1.40;;;5.10;99.90;;;;;;5077097;28;20102;-73
2022/12/30 08:33:38;;;;;;;7.93;1.85;;;5.10;99.90;;;;;;5073929;28;20096;-71
2022/12/30 08:36:10;;;;;;;5.97;2.35;;;5.20;99.90;;;;;;5077474;28;20095;-71
2022/12/30 08:38:38;;;;;;;6.97;3.08;;;5.20;99.90;;;;;;5076797;28;20040;-70
2022/12/30 08:41:18;;;;;;;6.65;2.13;;;5.30;99.90;;;;;;5076987;28;20073;-71
2022/12/30 08:43:44;;;;;;;2.88;1.52;;;5.30;99.90;;;;;;5079051;28;20068;-70
2022/12/30 08:46:10;;;;;;;5.25;1.80;;;5.30;99.90;;;;;;5075290;28;20118;-70
2022/12/30 08:48:35;;;;;;;4.28;1.80;;;5.30;99.90;;;;;;5079158;28;20036;-72
2022/12/30 08:51:03;;;;;;;8.55;2.03;;;5.40;99.90;;;;;;5076889;28;20048;-71
2022/12/30 08:53:30;;;;;;;6.70;1.40;;;5.40;99.90;;;;;;5078869;28;20049;-70
2022/12/30 08:56:01;;;;;;;4.85;1.48;;;5.50;99.90;;;;;;5077261;28;20070;-70
2022/12/30 08:58:27;;;;;;;5.35;1.67;;;5.50;99.90;;;;;;5076580;28;20052;-71
2022/12/30 09:00:53;;;;;;;3.78;1.90;;;5.50;99.90;;;;;;5077246;28;20036;-71
2022/12/30 09:03:18;;;;;;;7.25;1.80;;;5.50;99.90;;;;;;5076672;28;20079;-71
2022/12/30 09:05:48;;;;;;;3.65;1.50;;;5.50;99.90;;;;;;5078834;28;20437;-71
2022/12/30 09:08:14;;;;;;;3.72;1.70;;;5.60;99.90;;;;;;5074668;28;20056;-71
2022/12/30 09:10:39;;;;;;;4.88;1.65;;;5.70;99.90;;;;;;5075554;28;20042;-71
2022/12/30 09:13:05;;;;;;;5.50;1.88;;;5.70;99.90;;;;;;5075613;28;20052;-70
2022/12/30 09:15:31;;;;;;;5.88;1.58;;;5.80;99.90;;;;;;5073997;28;20060;-71
2022/12/30 09:17:56;;;;;;;8.15;1.67;;;5.80;99.90;;;;;;5058869;28;20029;-69
2022/12/30 09:20:22;;;;;;;5.18;1.55;;;5.80;99.90;;;;;;5058574;28;20052;-71
2022/12/30 09:22:48;;;;;;;5.03;1.38;;;5.80;99.90;;;;;;5043737;28;20047;-70
2022/12/30 09:25:14;;;;;;;5.00;1.60;;;5.90;99.90;;;;;;5074696;28;20112;-71
2022/12/30 09:27:40;;;;;;;3.17;1.52;;;5.90;99.90;;;;;;5077571;28;20045;-70
2022/12/30 09:30:06;;;;;;;5.60;1.75;;;5.90;99.90;;;;;;5075501;28;20127;-70
2022/12/30 09:32:32;;;;;;;4.38;1.88;;;5.90;99.90;;;;;;5077067;28;20064;-70
2022/12/30 09:34:57;;;;;;;5.88;1.60;;;6.00;99.90;;;;;;5078331;28;20059;-70
2022/12/30 09:37:24;;;;;;;4.88;1.30;;;6.00;99.90;;;;;;5059236;28;20044;-68
2022/12/30 09:39:49;;;;;;;4.55;1.40;;;6.00;99.90;;;;;;5078077;28;20044;-68
2022/12/30 09:45:13;;;;;;;4.35;1.33;;;6.10;99.90;;;;;;5075188;28;20044;-70
2022/12/30 09:47:47;;;;;;;4.90;1.45;;;6.10;99.90;;;;;;5076555;28;20478;-68
2022/12/30 09:50:13;;;;;;;5.07;1.83;;;6.20;99.90;;;;;;5074639;28;20055;-68
2022/12/30 09:53:06;;;;;;;5.88;1.60;;;6.20;99.90;;;;;;5078230;28;20112;-69
2022/12/30 09:55:49;;;;;;;6.88;1.35;;;6.30;99.90;;;;;;5076368;28;20044;-68
2022/12/30 09:58:27;;;;;;;2.90;1.30;;;6.30;99.90;;;;;;5078389;28;20052;-69
2022/12/30 10:00:54;;;;;;;3.58;1.02;;;6.30;99.90;;;;;;5077974;28;20044;-67
2022/12/30 10:03:21;;;;;;;3.75;1.20;;;6.40;99.90;;;;;;5077937;28;20060;-69
2022/12/30 10:06:01;;;;;;;7.15;1.60;;;6.40;99.90;;;;;;5081401;28;20044;-69
2022/12/30 10:08:41;;;;;;;3.88;1.40;;;6.40;99.90;;;;;;5076216;28;20040;-69
2022/12/30 10:11:45;;;;;;;5.80;1.65;;;6.40;99.90;;;;;;5064018;28;20048;-70
2022/12/30 10:14:29;;;;;;;6.47;1.90;;;6.50;99.90;;;;;;5048412;28;20084;-69
2022/12/30 10:16:59;;;;;;;4.40;1.50;;;6.50;99.90;;;;;;5079521;28;20040;-70
2022/12/30 10:19:31;;;;;;;9.90;1.70;;;6.50;99.90;;;;;;5081897;28;20086;-69
2022/12/30 10:22:15;;;;;;;4.55;1.85;;;6.60;99.90;;;;;;5081379;28;20080;-68
2022/12/30 10:25:07;;;;;;;3.92;1.48;;;6.60;99.90;;;;;;5079581;28;20041;-68
2022/12/30 10:27:43;;;;;;;5.85;1.60;;;6.70;99.90;;;;;;5080617;28;20051;-68
2022/12/30 10:30:22;;;;;;;4.53;1.27;;;6.80;99.90;;;;;;5080091;28;20445;-68
2022/12/30 10:32:54;;;;;;;5.13;1.23;;;6.80;99.90;;;;;;5080989;28;20092;-68
2022/12/30 10:35:26;;;;;;;4.93;2.67;;;6.90;99.90;;;;;;5081407;28;20044;-68
2022/12/30 10:38:04;;;;;;;4.68;1.42;;;7.00;99.90;;;;;;5078782;28;20036;-68
2022/12/30 10:40:48;;;;;;;2.58;1.27;;;7.10;99.90;;;;;;5081981;28;20041;-68
2022/12/30 10:43:53;;;;;;;4.55;1.65;;;7.10;99.90;;;;;;5063596;28;20052;-68
2022/12/30 10:46:52;;;;;;;5.40;1.75;;;7.30;99.90;;;;;;5070697;28;20049;-68
2022/12/30 10:49:33;;;;;;;4.63;1.45;;;7.30;99.90;;;;;;5104949;28;20110;-68
2022/12/30 10:52:00;;;;;;;2.78;1.30;;;7.40;99.90;;;;;;5080458;28;20056;-68
2022/12/30 10:54:26;;;;;;;3.55;1.40;;;7.50;99.90;;;;;;5079262;28;20035;-70
2022/12/30 10:56:52;;;;;;;3.08;1.08;;;7.50;99.90;;;;;;5080424;28;20041;-68
2022/12/30 10:59:22;;;;;;;4.03;1.20;;;7.50;99.90;;;;;;5078815;28;20083;-68
2022/12/30 11:01:52;;;;;;;4.35;1.17;;;7.50;99.90;;;;;;5080225;28;20051;-68
2022/12/30 11:04:39;;;;;;;3.10;1.17;;;7.50;99.90;;;;;;5079431;28;20131;-68
2022/12/30 11:07:10;;;;;;;;;;;7.50;99.90;;;;;;5078773;28;20045;-69
2022/12/30 11:09:37;;;;;;;2.10;1.00;;;7.50;99.90;;;;;;5080166;28;19950;-69
2022/12/30 11:15:01;;;;;;;3.85;1.35;;;7.60;99.90;;;;;;5078608;28;20044;-69
2022/12/30 11:17:31;;;;;;;4.78;1.13;;;7.60;99.90;;;;;;5077511;28;20055;-68
2022/12/30 11:20:19;;;;;;;2.35;1.20;;;7.60;99.90;;;;;;5079635;28;20040;-68
2022/12/30 11:22:50;;;;;;;4.13;1.00;;;7.60;99.90;;;;;;5080077;28;20071;-68
2022/12/30 11:25:37;;;;;;;3.30;1.10;;;7.60;99.90;;;;;;5077320;28;20064;-67
2022/12/30 11:28:32;;;;;;;4.35;1.00;;;7.70;99.90;;;;;;5082886;28;20099;-68
2022/12/30 11:30:59;;;;;;;5.03;1.27;;;7.70;99.90;;;;;;5081720;28;20033;-69
2022/12/30 11:33:38;;;;;;;1.80;1.15;;;7.80;99.90;;;;;;5080177;28;20055;-69
2022/12/30 11:36:21;;;;;;;3.00;1.08;;;7.90;99.90;;;;;;5083359;28;20048;-69
2022/12/30 11:38:51;;;;;;;5.25;1.45;;;7.90;99.90;;;;;;5080184;28;20058;-69
2022/12/30 11:41:16;;;;;;;4.22;1.10;;;8.00;99.90;;;;;;5081010;28;20048;-68
2022/12/30 11:43:48;;;;;;;2.13;0.93;;;8.00;99.90;;;;;;5079412;28;20047;-69
2022/12/30 11:46:20;;;;;;;2.33;1.02;;;8.10;99.90;;;;;;5077753;28;20059;-68
2022/12/30 11:48:55;;;;;;;4.18;1.00;;;8.10;99.90;;;;;;5078556;28;20100;-69
2022/12/30 11:51:27;;;;;;;3.38;1.17;;;8.10;99.90;;;;;;5077630;28;20492;-67
2022/12/30 11:54:10;;;;;;;2.70;0.90;;;8.10;99.90;;;;;;5079099;28;20075;-68
2022/12/30 11:56:49;;;;;;;2.50;0.98;;;8.10;99.90;;;;;;5077271;28;20051;-68
2022/12/30 11:59:18;;;;;;;3.72;1.35;;;8.10;99.90;;;;;;5077851;28;20040;-68
2022/12/30 12:01:47;;;;;;;2.72;0.93;;;8.10;99.90;;;;;;5080695;28;20132;-69
2022/12/30 12:04:31;;;;;;;5.05;1.00;;;8.20;99.90;;;;;;5076608;28;20060;-69
2022/12/30 12:06:57;;;;;;;2.53;1.10;;;8.10;99.90;;;;;;5079428;28;20283;-69
2022/12/30 12:09:37;;;;;;;3.65;1.33;;;8.10;99.90;;;;;;5078073;28;20087;-68
2022/12/30 12:12:09;;;;;;;3.97;1.42;;;8.20;99.90;;;;;;5076671;28;20040;-69
2022/12/30 12:14:58;;;;;;;2.00;1.00;;;8.20;99.90;;;;;;5080043;28;20051;-68
2022/12/30 12:17:53;;;;;;;3.80;1.00;;;8.20;99.90;;;;;;5063236;28;20531;-69
2022/12/30 12:20:43;;;;;;;2.45;0.90;;;8.20;99.90;;;;;;5040449;28;20057;-69
2022/12/30 12:23:36;;;;;;;3.28;0.77;;;8.20;99.90;;;;;;5080018;28;20051;-68
2022/12/30 12:26:25;;;;;;;3.10;1.30;;;8.20;99.90;;;;;;5078502;28;20100;-68
2022/12/30 12:28:53;;;;;;;2.53;0.90;;;8.20;99.90;;;;;;5055590;28;20045;-68
2022/12/30 12:31:21;;;;;;;3.08;1.33;;;8.30;99.90;;;;;;5058252;28;20186;-67
2022/12/30 12:33:56;;;;;;;3.28;1.00;;;8.30;99.90;;;;;;5057459;28;20118;-67
2022/12/30 12:36:27;;;;;;;3.55;0.98;;;8.30;99.90;;;;;;5059542;28;20060;-68
2022/12/30 12:39:00;;;;;;;3.17;1.08;;;8.30;99.90;;;;;;5058202;28;20110;-68
2022/12/30 12:41:45;;;;;;;2.65;0.90;;;8.30;99.90;;;;;;5057323;28;20436;-69
2022/12/30 12:44:28;;;;;;;3.58;1.00;;;8.40;99.90;;;;;;5058499;28;20187;-68
2022/12/30 12:47:06;;;;;;;1.65;0.68;;;8.40;99.90;;;;;;5057618;28;20053;-68
2022/12/30 12:49:51;;;;;;;2.50;0.98;;;8.40;99.90;;;;;;5059279;28;20041;-68
2022/12/30 12:52:43;;;;;;;3.00;0.90;;;8.40;99.90;;;;;;5058183;28;20048;-68
2022/12/30 12:55:47;;;;;;;3.00;0.88;;;8.40;99.90;;;;;;5070386;28;20048;-68
2022/12/30 12:58:32;;;;;;;2.00;0.80;;;8.50;99.90;;;;;;5078407;28;20048;-68
2022/12/30 13:01:48;;;;;;;3.63;0.73;;;8.40;99.90;;;;;;5078389;28;20071;-68
2022/12/30 13:04:46;;;;;;;2.10;0.80;;;8.40;99.90;;;;;;5044817;28;20091;-66
2022/12/30 13:07:17;;;;;;;2.58;1.10;;;8.50;99.90;;;;;;5078045;28;20049;-68
2022/12/30 13:10:10;;;;;;;2.47;0.90;;;8.50;99.90;;;;;;5079018;28;20130;-67
2022/12/30 13:12:43;;;;;;;1.73;0.60;;;8.60;99.90;;;;;;5077010;28;20053;-67
2022/12/30 13:15:26;;;;;;;4.60;1.00;;;8.60;99.90;;;;;;5078794;28;20032;-68
2022/12/30 13:17:58;;;;;;;3.20;0.70;;;8.60;99.90;;;;;;5074655;28;20044;-67
2022/12/30 13:20:30;;;;;;;2.65;0.82;;;8.70;99.90;;;;;;5074340;28;20074;-67
2022/12/30 13:23:01;;;;;;;2.28;0.90;;;9.30;99.90;;;;;;5078133;28;20373;-68
2022/12/30 13:25:40;;;;;;;2.60;0.80;;;8.70;99.90;;;;;;5077204;28;20101;-68
2022/12/30 13:28:13;;;;;;;3.03;1.33;;;8.70;99.90;;;;;;5059839;28;20052;-68
2022/12/30 13:31:08;;;;;;;3.63;1.10;;;8.80;99.90;;;;;;5074436;28;20085;-68
2022/12/30 13:33:52;;;;;;;3.55;0.80;;;8.70;99.90;;;;;;5059449;28;20201;-68
2022/12/30 13:36:26;;;;;;;3.92;1.00;;;8.70;99.90;;;;;;5078433;28;20052;-68
2022/12/30 13:39:10;;;;;;;2.83;1.08;;;8.70;99.90;;;;;;5076673;28;20047;-67
2022/12/30 13:41:47;;;;;;;2.40;0.80;;;8.70;99.90;;;;;;5075730;28;20088;-69
2022/12/30 13:44:17;;;;;;;4.55;1.05;;;8.70;99.90;;;;;;5077210;28;20106;-70
2022/12/30 13:46:53;;;;;;;2.70;0.70;;;8.60;99.90;;;;;;5076506;28;20047;-68
2022/12/30 13:49:22;;;;;;;2.20;0.80;;;8.60;99.90;;;;;;5078546;28;20051;-68
2022/12/30 13:52:16;;;;;;;3.90;1.02;;;8.60;99.90;;;;;;5076486;28;20052;-69
2022/12/30 13:54:50;;;;;;;2.17;0.80;;;8.60;99.90;;;;;;5075234;28;20104;-68
2022/12/30 13:57:29;;;;;;;3.42;0.90;;;8.70;99.90;;;;;;5078922;28;20116;-68
2022/12/30 14:00:29;;;;;;;3.05;0.82;;;8.70;99.90;;;;;;5076851;28;20041;-69
2022/12/30 14:02:58;;;;;;;1.90;0.90;;;8.70;99.90;;;;;;5076731;28;20530;-68
2022/12/30 14:05:38;;;;;;;3.53;0.90;;;8.70;99.90;;;;;;5078389;28;20064;-68
2022/12/30 14:08:24;;;;;;;4.55;1.05;;;9.20;99.90;;;;;;5075874;28;20523;-68
2022/12/30 14:10:59;;;;;;;3.73;1.27;;;8.80;99.90;;;;;;5066706;28;20671;-68
2022/12/30 14:13:29;;;;;;;4.10;1.00;;;8.80;99.90;;;;;;5077848;28;20051;-67
2022/12/30 14:16:27;;;;;;;2.65;0.98;;;8.80;99.90;;;;;;5076892;28;20070;-68
2022/12/30 14:18:54;;;;;;;2.35;0.75;;;8.80;99.90;;;;;;5078102;28;20127;-68